createdAt,value
2018-09-03T00:00:43.854Z,0
2018-09-03T00:01:43.656Z,0
2018-09-03T00:02:43.359Z,0
2018-09-03T00:03:44.186Z,0
2018-09-03T00:04:43.847Z,0
2018-09-03T00:05:43.613Z,0
2018-09-03T00:06:43.598Z,0
2018-09-03T00:07:43.868Z,0
2018-09-03T00:08:44.127Z,0
2018-09-03T00:09:43.988Z,0
2018-09-03T00:10:43.614Z,0
2018-09-03T00:11:43.828Z,0
2018-09-03T00:12:43.584Z,0
2018-09-03T00:13:43.652Z,0
2018-09-03T00:14:43.922Z,0
2018-09-03T00:15:43.648Z,0
2018-09-03T00:16:43.337Z,0
2018-09-03T00:17:43.598Z,0
2018-09-03T00:18:43.336Z,0
2018-09-03T00:19:43.601Z,0
2018-09-03T00:20:43.585Z,0
2018-09-03T00:21:43.336Z,0
2018-09-03T00:22:43.344Z,0
2018-09-03T00:23:43.876Z,0
2018-09-03T00:24:43.876Z,0
2018-09-03T00:25:43.400Z,0
2018-09-03T00:26:43.611Z,0
2018-09-03T00:27:43.839Z,0
2018-09-03T00:28:43.349Z,0
2018-09-03T00:29:43.345Z,0
2018-09-03T00:30:43.583Z,0
2018-09-03T00:31:43.838Z,0
2018-09-03T00:32:44.092Z,0
2018-09-03T00:33:44.105Z,0
2018-09-03T00:34:43.592Z,0
2018-09-03T00:35:43.569Z,0
2018-09-03T00:36:44.104Z,0
2018-09-03T00:37:43.590Z,0
2018-09-03T00:38:43.351Z,0
2018-09-03T00:39:43.832Z,0
2018-09-03T00:40:43.854Z,0
2018-09-03T00:41:43.580Z,0
2018-09-03T00:42:43.346Z,0
2018-09-03T00:43:43.589Z,0
2018-09-03T00:44:43.570Z,0
2018-09-03T00:45:43.826Z,0
2018-09-03T00:46:43.057Z,0
2018-09-03T00:47:43.347Z,0
2018-09-03T00:48:44.101Z,0
2018-09-03T00:49:43.060Z,0
2018-09-03T00:50:44.144Z,0
2018-09-03T00:51:43.327Z,0
2018-09-03T00:52:43.570Z,0
2018-09-03T00:53:43.579Z,0
2018-09-03T00:54:43.331Z,0
2018-09-03T00:55:43.604Z,0
2018-09-03T00:56:43.836Z,0
2018-09-03T00:57:43.836Z,0
2018-09-03T00:58:43.322Z,0
2018-09-03T00:59:43.328Z,0
2018-09-03T01:00:43.608Z,0
2018-09-03T01:01:43.848Z,0
2018-09-03T01:02:43.571Z,0
2018-09-03T01:03:43.326Z,0
2018-09-03T01:04:43.839Z,0
2018-09-03T01:05:43.583Z,0
2018-09-03T01:06:44.114Z,0
2018-09-03T01:07:43.839Z,0
2018-09-03T01:08:44.113Z,0
2018-09-03T01:09:44.126Z,0
2018-09-03T01:10:43.313Z,0
2018-09-03T01:11:43.588Z,0
2018-09-03T01:12:44.108Z,0
2018-09-03T01:13:43.308Z,0
2018-09-03T01:14:44.115Z,0
2018-09-03T01:15:43.569Z,0
2018-09-03T01:16:43.844Z,0
2018-09-03T01:17:43.601Z,0
2018-09-03T01:18:43.571Z,0
2018-09-03T01:19:43.845Z,0
2018-09-03T01:20:43.834Z,0
2018-09-03T01:21:43.582Z,0
2018-09-03T01:22:43.322Z,0
2018-09-03T01:23:43.842Z,0
2018-09-03T01:24:43.839Z,0
2018-09-03T01:25:43.589Z,0
2018-09-03T01:26:43.581Z,0
2018-09-03T01:27:44.116Z,0
2018-09-03T01:28:43.851Z,0
2018-09-03T01:29:44.185Z,0
2018-09-03T01:30:44.079Z,0
2018-09-03T01:31:44.101Z,0
2018-09-03T01:32:43.854Z,0
2018-09-03T01:33:43.823Z,0
2018-09-03T01:34:43.850Z,0
2018-09-03T01:35:44.077Z,0
2018-09-03T01:36:43.575Z,0
2018-09-03T01:37:43.346Z,0
2018-09-03T01:38:43.850Z,0
2018-09-03T01:39:43.579Z,0
2018-09-03T01:40:43.849Z,0
2018-09-03T01:41:43.852Z,0
2018-09-03T01:42:43.804Z,0
2018-09-03T01:43:44.089Z,0
2018-09-03T01:44:43.335Z,0
2018-09-03T01:45:43.819Z,0
2018-09-03T01:46:43.828Z,0
2018-09-03T01:47:43.568Z,0
2018-09-03T01:48:43.551Z,0
2018-09-03T01:49:44.069Z,0
2018-09-03T01:50:43.817Z,0
2018-09-03T01:51:43.819Z,0
2018-09-03T01:52:44.063Z,0
2018-09-03T01:53:43.836Z,0
2018-09-03T01:54:43.825Z,0
2018-09-03T01:55:43.566Z,0
2018-09-03T01:56:43.319Z,0
2018-09-03T01:57:43.806Z,0
2018-09-03T01:58:44.064Z,0
2018-09-03T01:59:44.070Z,0
2018-09-03T02:00:43.838Z,0
2018-09-03T02:01:43.289Z,0
2018-09-03T02:02:43.571Z,0
2018-09-03T02:03:43.557Z,0
2018-09-03T02:04:43.570Z,0
2018-09-03T02:05:43.577Z,0
2018-09-03T02:06:43.034Z,0
2018-09-03T02:07:44.071Z,0
2018-09-03T02:08:43.801Z,0
2018-09-03T02:09:43.551Z,0
2018-09-03T02:10:44.047Z,0
2018-09-03T02:11:43.553Z,0
2018-09-03T02:12:43.559Z,0
2018-09-03T02:13:44.058Z,0
2018-09-03T02:14:43.836Z,0
2018-09-03T02:15:43.552Z,0
2018-09-03T02:16:43.289Z,0
2018-09-03T02:17:44.054Z,0
2018-09-03T02:18:43.792Z,0
2018-09-03T02:19:43.307Z,0
2018-09-03T02:20:43.820Z,0
2018-09-03T02:21:44.060Z,0
2018-09-03T02:22:44.063Z,0
2018-09-03T02:23:43.537Z,0
2018-09-03T02:24:44.109Z,0
2018-09-03T02:25:44.087Z,0
2018-09-03T02:26:43.828Z,0
2018-09-03T02:27:43.545Z,0
2018-09-03T02:28:43.819Z,0
2018-09-03T02:29:43.549Z,0
2018-09-03T02:30:43.904Z,0
2018-09-03T02:31:43.845Z,0
2018-09-03T02:32:43.331Z,0
2018-09-03T02:33:43.565Z,0
2018-09-03T02:34:43.836Z,0
2018-09-03T02:35:43.819Z,0
2018-09-03T02:36:43.832Z,0
2018-09-03T02:37:44.066Z,0
2018-09-03T02:38:43.560Z,0
2018-09-03T02:39:43.909Z,0
2018-09-03T02:40:43.825Z,0
2018-09-03T02:41:44.081Z,0
2018-09-03T02:42:43.541Z,0
2018-09-03T02:43:44.080Z,0
2018-09-03T02:44:43.837Z,0
2018-09-03T02:45:45.431Z,0
2018-09-03T02:46:43.534Z,0
2018-09-03T02:47:43.840Z,0
2018-09-03T02:48:43.796Z,0
2018-09-03T02:49:43.800Z,0
2018-09-03T02:50:44.067Z,0
2018-09-03T02:51:43.814Z,0
2018-09-03T02:52:43.801Z,0
2018-09-03T02:53:43.802Z,0
2018-09-03T02:54:43.817Z,0
2018-09-03T02:55:43.900Z,0
2018-09-03T02:56:43.825Z,0
2018-09-03T02:57:43.795Z,0
2018-09-03T02:58:43.821Z,0
2018-09-03T02:59:44.036Z,0
2018-09-03T03:00:43.559Z,0
2018-09-03T03:01:43.830Z,0
2018-09-03T03:02:43.826Z,0
2018-09-03T03:03:43.795Z,0
2018-09-03T03:04:43.809Z,0
2018-09-03T03:05:44.061Z,0
2018-09-03T03:06:43.796Z,0
2018-09-03T03:07:43.534Z,0
2018-09-03T03:08:43.813Z,0
2018-09-03T03:09:44.070Z,0
2018-09-03T03:10:43.809Z,0
2018-09-03T03:11:43.409Z,0
2018-09-03T03:12:44.064Z,0
2018-09-03T03:13:44.088Z,0
2018-09-03T03:14:44.035Z,0
2018-09-03T03:15:44.065Z,0
2018-09-03T03:16:43.558Z,0
2018-09-03T03:17:44.052Z,0
2018-09-03T03:18:43.514Z,0
2018-09-03T03:19:43.522Z,0
2018-09-03T03:20:43.548Z,0
2018-09-03T03:21:43.804Z,0
2018-09-03T03:22:43.818Z,0
2018-09-03T03:23:43.762Z,0
2018-09-03T03:24:43.804Z,0
2018-09-03T03:25:43.268Z,0
2018-09-03T03:26:43.793Z,0
2018-09-03T03:27:43.761Z,0
2018-09-03T03:28:44.041Z,0
2018-09-03T03:29:43.531Z,0
2018-09-03T03:30:43.794Z,0
2018-09-03T03:31:43.808Z,0
2018-09-03T03:32:47.536Z,0
2018-09-03T03:33:44.034Z,0
2018-09-03T03:34:43.812Z,0
2018-09-03T03:35:43.523Z,0
2018-09-03T03:36:43.793Z,0
2018-09-03T03:37:43.512Z,0
2018-09-03T03:38:43.804Z,0
2018-09-03T03:39:43.822Z,0
2018-09-03T03:40:43.277Z,0
2018-09-03T03:41:43.812Z,0
2018-09-03T03:42:44.068Z,0
2018-09-03T03:43:43.810Z,0
2018-09-03T03:44:43.556Z,0
2018-09-03T03:45:44.022Z,0
2018-09-03T03:46:43.804Z,0
2018-09-03T03:47:43.819Z,0
2018-09-03T03:48:43.717Z,0
2018-09-03T03:49:43.767Z,0
2018-09-03T03:50:43.797Z,0
2018-09-03T03:51:43.805Z,0
2018-09-03T03:52:43.290Z,0
2018-09-03T03:53:43.764Z,0
2018-09-03T03:54:44.039Z,0
2018-09-03T03:55:43.769Z,0
2018-09-03T03:56:43.791Z,0
2018-09-03T03:57:43.543Z,0
2018-09-03T03:58:43.526Z,0
2018-09-03T03:59:43.803Z,0
2018-09-03T04:00:43.799Z,0
2018-09-03T04:01:43.805Z,0
2018-09-03T04:02:44.046Z,0
2018-09-03T04:03:43.251Z,0
2018-09-03T04:04:43.273Z,0
2018-09-03T04:05:43.535Z,0
2018-09-03T04:06:43.515Z,0
2018-09-03T04:07:43.508Z,0
2018-09-03T04:08:43.270Z,0
2018-09-03T04:09:44.006Z,0
2018-09-03T04:10:43.516Z,0
2018-09-03T04:11:43.253Z,0
2018-09-03T04:12:43.777Z,0
2018-09-03T04:13:44.015Z,0
2018-09-03T04:14:43.514Z,0
2018-09-03T04:15:43.511Z,0
2018-09-03T04:16:43.256Z,0
2018-09-03T04:17:43.245Z,0
2018-09-03T04:18:43.761Z,0
2018-09-03T04:19:43.508Z,0
2018-09-03T04:20:43.768Z,0
2018-09-03T04:21:43.765Z,0
2018-09-03T04:22:43.997Z,0
2018-09-03T04:23:43.512Z,0
2018-09-03T04:24:44.011Z,0
2018-09-03T04:25:43.815Z,0
2018-09-03T04:26:43.755Z,0
2018-09-03T04:27:43.506Z,0
2018-09-03T04:28:43.329Z,0
2018-09-03T04:29:43.497Z,0
2018-09-03T04:30:43.545Z,0
2018-09-03T04:31:43.492Z,0
2018-09-03T04:32:43.512Z,0
2018-09-03T04:33:44.022Z,0
2018-09-03T04:34:43.243Z,0
2018-09-03T04:35:43.274Z,0
2018-09-03T04:36:43.522Z,0
2018-09-03T04:37:43.793Z,0
2018-09-03T04:38:44.369Z,0
2018-09-03T04:39:43.766Z,0
2018-09-03T04:40:43.488Z,0
2018-09-03T04:41:43.249Z,0
2018-09-03T04:42:44.063Z,0
2018-09-03T04:43:43.758Z,0
2018-09-03T04:44:43.309Z,0
2018-09-03T04:45:43.843Z,0
2018-09-03T04:46:42.989Z,0
2018-09-03T04:47:43.250Z,0
2018-09-03T04:48:43.746Z,0
2018-09-03T04:49:43.745Z,0
2018-09-03T04:50:43.493Z,0
2018-09-03T04:51:43.485Z,5
2018-09-03T04:52:43.768Z,5
2018-09-03T04:53:43.779Z,5
2018-09-03T04:54:44.429Z,5
2018-09-03T04:55:43.546Z,5
2018-09-03T04:56:43.786Z,5
2018-09-03T04:57:43.770Z,5
2018-09-03T04:58:43.777Z,5
2018-09-03T04:59:44.024Z,5
2018-09-03T05:00:44.021Z,5
2018-09-03T05:01:44.291Z,5
2018-09-03T05:02:43.763Z,5
2018-09-03T05:03:43.758Z,10
2018-09-03T05:04:43.228Z,10
2018-09-03T05:05:44.428Z,10
2018-09-03T05:06:43.551Z,10
2018-09-03T05:07:43.761Z,10
2018-09-03T05:08:44.816Z,10
2018-09-03T05:09:43.520Z,10
2018-09-03T05:10:43.761Z,10
2018-09-03T05:11:44.072Z,15
2018-09-03T05:12:43.747Z,15
2018-09-03T05:13:44.042Z,15
2018-09-03T05:14:43.275Z,15
2018-09-03T05:15:44.010Z,15
2018-09-03T05:16:44.074Z,15
2018-09-03T05:17:44.040Z,15
2018-09-03T05:18:43.544Z,20
2018-09-03T05:19:43.743Z,20
2018-09-03T05:20:43.504Z,20
2018-09-03T05:21:44.070Z,20
2018-09-03T05:22:43.786Z,20
2018-09-03T05:23:43.249Z,20
2018-09-03T05:24:43.483Z,20
2018-09-03T05:25:43.746Z,20
2018-09-03T05:26:43.477Z,20
2018-09-03T05:27:43.730Z,20
2018-09-03T05:28:43.236Z,20
2018-09-03T05:29:43.220Z,20
2018-09-03T05:30:43.760Z,20
2018-09-03T05:31:43.507Z,20
2018-09-03T05:32:43.471Z,20
2018-09-03T05:33:43.478Z,15
2018-09-03T05:34:43.995Z,15
2018-09-03T05:35:43.495Z,15
2018-09-03T05:36:43.478Z,15
2018-09-03T05:37:43.998Z,15
2018-09-03T05:38:43.759Z,15
2018-09-03T05:39:43.755Z,15
2018-09-03T05:40:43.745Z,15
2018-09-03T05:41:43.732Z,15
2018-09-03T05:42:43.747Z,15
2018-09-03T05:43:44.222Z,15
2018-09-03T05:44:43.756Z,15
2018-09-03T05:45:43.481Z,15
2018-09-03T05:46:43.998Z,10
2018-09-03T05:47:43.516Z,15
2018-09-03T05:48:43.238Z,15
2018-09-03T05:49:43.542Z,15
2018-09-03T05:50:43.977Z,15
2018-09-03T05:51:43.735Z,15
2018-09-03T05:52:43.488Z,15
2018-09-03T05:53:43.229Z,20
2018-09-03T05:54:43.477Z,20
2018-09-03T05:55:43.483Z,25
2018-09-03T05:56:43.479Z,30
2018-09-03T05:57:43.493Z,30
2018-09-03T05:58:43.493Z,30
2018-09-03T05:59:43.740Z,30
2018-09-03T06:00:43.750Z,30
2018-09-03T06:01:44.004Z,35
2018-09-03T06:02:43.495Z,35
2018-09-03T06:03:43.492Z,35
2018-09-03T06:04:44.172Z,35
2018-09-03T06:05:43.745Z,40
2018-09-03T06:06:43.480Z,45
2018-09-03T06:07:43.477Z,45
2018-09-03T06:08:44.556Z,50
2018-09-03T06:09:43.734Z,60
2018-09-03T06:10:44.009Z,70
2018-09-03T06:11:43.733Z,75
2018-09-03T06:12:43.833Z,80
2018-09-03T06:13:43.734Z,85
2018-09-03T06:14:43.614Z,85
2018-09-03T06:15:43.226Z,85
2018-09-03T06:16:43.777Z,80
2018-09-03T06:17:43.776Z,80
2018-09-03T06:18:43.497Z,75
2018-09-03T06:19:43.508Z,70
2018-09-03T06:20:43.760Z,70
2018-09-03T06:21:43.740Z,70
2018-09-03T06:22:43.785Z,70
2018-09-03T06:23:43.218Z,75
2018-09-03T06:24:43.514Z,75
2018-09-03T06:25:43.224Z,75
2018-09-03T06:26:44.123Z,75
2018-09-03T06:27:43.250Z,70
2018-09-03T06:28:43.483Z,70
2018-09-03T06:29:43.747Z,70
2018-09-03T06:30:43.483Z,70
2018-09-03T06:31:43.224Z,75
2018-09-03T06:32:43.752Z,80
2018-09-03T06:33:43.232Z,85
2018-09-03T06:34:43.232Z,90
2018-09-03T06:35:43.789Z,95
2018-09-03T06:36:43.755Z,95
2018-09-03T06:37:43.741Z,95
2018-09-03T06:38:42.996Z,100
2018-09-03T06:39:44.020Z,100
2018-09-03T06:40:43.483Z,100
2018-09-03T06:41:42.982Z,100
2018-09-03T06:42:43.740Z,105
2018-09-03T06:43:43.744Z,110
2018-09-03T06:44:43.749Z,110
2018-09-03T06:45:43.759Z,115
2018-09-03T06:46:43.748Z,115
2018-09-03T06:47:43.505Z,120
2018-09-03T06:48:43.748Z,130
2018-09-03T06:49:43.238Z,140
2018-09-03T06:50:43.265Z,145
2018-09-03T06:51:43.759Z,155
2018-09-03T06:52:44.209Z,165
2018-09-03T06:53:43.303Z,165
2018-09-03T06:54:43.508Z,165
2018-09-03T06:55:44.034Z,155
2018-09-03T06:56:44.006Z,145
2018-09-03T06:57:43.759Z,130
2018-09-03T06:58:43.509Z,120
2018-09-03T06:59:44.507Z,110
2018-09-03T07:00:44.022Z,105
2018-09-03T07:01:43.264Z,105
2018-09-03T07:02:43.758Z,100
2018-09-03T07:03:43.759Z,100
2018-09-03T07:04:43.752Z,100
2018-09-03T07:05:43.498Z,100
2018-09-03T07:06:43.865Z,100
2018-09-03T07:07:43.241Z,100
2018-09-03T07:08:43.512Z,105
2018-09-03T07:09:43.318Z,110
2018-09-03T07:10:43.779Z,110
2018-09-03T07:11:43.506Z,115
2018-09-03T07:12:43.515Z,115
2018-09-03T07:13:43.513Z,115
2018-09-03T07:14:44.017Z,115
2018-09-03T07:15:43.543Z,115
2018-09-03T07:16:43.517Z,120
2018-09-03T07:17:44.012Z,120
2018-09-03T07:18:43.584Z,125
2018-09-03T07:19:43.782Z,125
2018-09-03T07:20:43.793Z,120
2018-09-03T07:21:43.275Z,120
2018-09-03T07:22:43.777Z,115
2018-09-03T07:23:43.519Z,105
2018-09-03T07:24:43.829Z,100
2018-09-03T07:25:43.519Z,100
2018-09-03T07:26:43.512Z,100
2018-09-03T07:27:43.777Z,100
2018-09-03T07:28:43.898Z,100
2018-09-03T07:29:43.537Z,100
2018-09-03T07:30:43.596Z,105
2018-09-03T07:31:43.521Z,95
2018-09-03T07:32:43.804Z,95
2018-09-03T07:33:43.809Z,90
2018-09-03T07:34:43.766Z,85
2018-09-03T07:35:43.384Z,85
2018-09-03T07:36:43.793Z,80
2018-09-03T07:37:43.537Z,80
2018-09-03T07:38:43.278Z,75
2018-09-03T07:39:43.270Z,70
2018-09-03T07:40:43.803Z,65
2018-09-03T07:41:43.802Z,70
2018-09-03T07:42:43.270Z,70
2018-09-03T07:43:43.549Z,70
2018-09-03T07:44:43.023Z,70
2018-09-03T07:45:43.549Z,70
2018-09-03T07:46:43.802Z,75
2018-09-03T07:47:44.164Z,70
2018-09-03T07:48:43.805Z,65
2018-09-03T07:49:43.810Z,60
2018-09-03T07:50:43.804Z,60
2018-09-03T07:51:43.771Z,55
2018-09-03T07:52:44.043Z,55
2018-09-03T07:53:43.299Z,60
2018-09-03T07:54:43.806Z,60
2018-09-03T07:55:43.548Z,60
2018-09-03T07:56:43.540Z,65
2018-09-03T07:57:43.793Z,70
2018-09-03T07:58:43.306Z,80
2018-09-03T07:59:43.824Z,90
2018-09-03T08:00:43.813Z,95
2018-09-03T08:01:43.853Z,95
2018-09-03T08:02:43.289Z,90
2018-09-03T08:03:43.281Z,90
2018-09-03T08:04:44.060Z,90
2018-09-03T08:05:43.810Z,95
2018-09-03T08:06:43.802Z,95
2018-09-03T08:07:43.532Z,100
2018-09-03T08:08:43.554Z,100
2018-09-03T08:09:43.548Z,105
2018-09-03T08:10:43.819Z,105
2018-09-03T08:11:43.555Z,105
2018-09-03T08:12:44.054Z,100
2018-09-03T08:13:43.027Z,105
2018-09-03T08:14:43.781Z,110
2018-09-03T08:15:43.822Z,115
2018-09-03T08:16:43.811Z,110
2018-09-03T08:17:43.827Z,110
2018-09-03T08:18:43.825Z,105
2018-09-03T08:19:43.567Z,95
2018-09-03T08:20:43.295Z,90
2018-09-03T08:21:43.569Z,85
2018-09-03T08:22:43.285Z,85
2018-09-03T08:23:43.560Z,90
2018-09-03T08:24:43.829Z,90
2018-09-03T08:25:43.570Z,95
2018-09-03T08:26:43.825Z,95
2018-09-03T08:27:43.294Z,90
2018-09-03T08:28:43.549Z,90
2018-09-03T08:29:43.549Z,90
2018-09-03T08:30:44.062Z,90
2018-09-03T08:31:43.810Z,85
2018-09-03T08:32:43.566Z,80
2018-09-03T08:33:43.844Z,80
2018-09-03T08:34:44.787Z,75
2018-09-03T08:35:43.712Z,70
2018-09-03T08:36:43.821Z,70
2018-09-03T08:37:44.107Z,60
2018-09-03T08:38:43.578Z,60
2018-09-03T08:39:43.593Z,55
2018-09-03T08:40:43.841Z,50
2018-09-03T08:41:43.559Z,45
2018-09-03T08:42:44.078Z,45
2018-09-03T08:43:44.103Z,45
2018-09-03T08:44:44.817Z,40
2018-09-03T08:45:43.581Z,40
2018-09-03T08:46:44.087Z,35
2018-09-03T08:47:43.586Z,35
2018-09-03T08:48:43.376Z,35
2018-09-03T08:49:43.847Z,35
2018-09-03T08:50:43.378Z,35
2018-09-03T08:51:43.576Z,40
2018-09-03T08:52:43.585Z,40
2018-09-03T08:53:43.575Z,40
2018-09-03T08:54:43.588Z,40
2018-09-03T08:55:43.584Z,40
2018-09-03T08:56:43.702Z,40
2018-09-03T08:57:43.860Z,40
2018-09-03T08:58:43.571Z,40
2018-09-03T08:59:43.575Z,45
2018-09-03T09:00:43.571Z,45
2018-09-03T09:01:43.869Z,50
2018-09-03T09:02:43.833Z,50
2018-09-03T09:03:43.816Z,50
2018-09-03T09:04:43.576Z,50
2018-09-03T09:05:43.639Z,50
2018-09-03T09:06:44.098Z,50
2018-09-03T09:07:43.831Z,55
2018-09-03T09:08:43.565Z,55
2018-09-03T09:09:44.090Z,65
2018-09-03T09:10:43.840Z,65
2018-09-03T09:11:43.448Z,65
2018-09-03T09:12:43.566Z,70
2018-09-03T09:13:44.084Z,70
2018-09-03T09:14:44.102Z,65
2018-09-03T09:15:44.121Z,65
2018-09-03T09:16:43.851Z,60
2018-09-03T09:17:43.867Z,60
2018-09-03T09:18:44.098Z,65
2018-09-03T09:19:44.109Z,70
2018-09-03T09:20:43.608Z,75
2018-09-03T09:21:43.826Z,80
2018-09-03T09:22:43.852Z,85
2018-09-03T09:23:43.609Z,90
2018-09-03T09:24:43.576Z,90
2018-09-03T09:25:43.590Z,95
2018-09-03T09:26:44.102Z,90
2018-09-03T09:27:43.850Z,90
2018-09-03T09:28:44.134Z,85
2018-09-03T09:29:43.847Z,85
2018-09-03T09:30:43.616Z,80
2018-09-03T09:31:43.600Z,80
2018-09-03T09:32:44.093Z,75
2018-09-03T09:33:43.651Z,75
2018-09-03T09:34:45.454Z,70
2018-09-03T09:35:44.010Z,70
2018-09-03T09:36:44.244Z,70
2018-09-03T09:37:43.603Z,70
2018-09-03T09:38:43.342Z,70
2018-09-03T09:39:44.093Z,70
2018-09-03T09:40:43.603Z,65
2018-09-03T09:41:43.839Z,65
2018-09-03T09:42:43.870Z,60
2018-09-03T09:43:43.617Z,60
2018-09-03T09:44:43.582Z,60
2018-09-03T09:45:43.841Z,60
2018-09-03T09:46:43.624Z,60
2018-09-03T09:47:43.869Z,60
2018-09-03T09:48:43.838Z,60
2018-09-03T09:49:44.163Z,60
2018-09-03T09:50:43.658Z,65
2018-09-03T09:51:44.143Z,70
2018-09-03T09:52:43.844Z,75
2018-09-03T09:53:43.615Z,80
2018-09-03T09:54:43.610Z,85
2018-09-03T09:55:46.275Z,90
2018-09-03T09:56:43.918Z,90
2018-09-03T09:57:43.872Z,90
2018-09-03T09:58:43.630Z,95
2018-09-03T09:59:44.110Z,95
2018-09-03T10:00:43.087Z,100
2018-09-03T10:01:43.870Z,105
2018-09-03T10:02:44.122Z,105
2018-09-03T10:03:44.116Z,105
2018-09-03T10:04:44.135Z,110
2018-09-03T10:05:43.867Z,110
2018-09-03T10:06:43.879Z,110
2018-09-03T10:07:43.633Z,115
2018-09-03T10:08:43.874Z,115
2018-09-03T10:09:43.636Z,120
2018-09-03T10:10:44.122Z,125
2018-09-03T10:11:43.640Z,130
2018-09-03T10:12:44.162Z,140
2018-09-03T10:13:43.343Z,150
2018-09-03T10:14:44.116Z,160
2018-09-03T10:15:43.342Z,165
2018-09-03T10:16:43.889Z,180
2018-09-03T10:17:43.884Z,185
2018-09-03T10:18:43.874Z,185
2018-09-03T10:19:43.881Z,185
2018-09-03T10:20:46.104Z,185
2018-09-03T10:21:43.602Z,190
2018-09-03T10:22:43.626Z,195
2018-09-03T10:23:43.893Z,205
2018-09-03T10:24:43.613Z,215
2018-09-03T10:25:44.122Z,230
2018-09-03T10:26:43.388Z,240
2018-09-03T10:27:43.888Z,255
2018-09-03T10:28:44.175Z,260
2018-09-03T10:29:43.875Z,265
2018-09-03T10:30:43.382Z,260
2018-09-03T10:31:43.641Z,260
2018-09-03T10:32:43.891Z,250
2018-09-03T10:33:43.638Z,240
2018-09-03T10:34:43.377Z,230
2018-09-03T10:35:43.638Z,230
2018-09-03T10:36:43.386Z,230
2018-09-03T10:37:43.943Z,235
2018-09-03T10:38:44.192Z,245
2018-09-03T10:39:43.662Z,255
2018-09-03T10:40:43.929Z,265
2018-09-03T10:41:43.645Z,270
2018-09-03T10:42:43.909Z,275
2018-09-03T10:43:43.648Z,275
2018-09-03T10:44:43.997Z,270
2018-09-03T10:45:44.190Z,265
2018-09-03T10:46:43.653Z,250
2018-09-03T10:47:44.177Z,220
2018-09-03T10:48:43.923Z,205
2018-09-03T10:49:44.182Z,195
2018-09-03T10:50:43.919Z,190
2018-09-03T10:51:43.678Z,190
2018-09-03T10:52:43.407Z,185
2018-09-03T10:53:43.401Z,180
2018-09-03T10:54:43.933Z,180
2018-09-03T10:55:43.436Z,185
2018-09-03T10:56:43.660Z,200
2018-09-03T10:57:43.939Z,215
2018-09-03T10:58:43.427Z,225
2018-09-03T10:59:43.939Z,235
2018-09-03T11:00:43.932Z,230
2018-09-03T11:01:43.672Z,215
2018-09-03T11:02:43.942Z,210
2018-09-03T11:03:43.442Z,210
2018-09-03T11:04:44.195Z,215
2018-09-03T11:05:43.434Z,225
2018-09-03T11:06:43.952Z,240
2018-09-03T11:07:43.960Z,245
2018-09-03T11:08:43.954Z,250
2018-09-03T11:09:43.733Z,260
2018-09-03T11:10:44.234Z,275
2018-09-03T11:11:43.979Z,290
2018-09-03T11:12:43.969Z,300
2018-09-03T11:13:43.703Z,310
2018-09-03T11:14:44.236Z,325
2018-09-03T11:15:44.198Z,335
2018-09-03T11:16:43.961Z,345
2018-09-03T11:17:43.449Z,345
2018-09-03T11:18:43.220Z,350
2018-09-03T11:19:44.220Z,350
2018-09-03T11:20:43.728Z,345
2018-09-03T11:21:45.475Z,340
2018-09-03T11:22:43.463Z,340
2018-09-03T11:23:43.976Z,340
2018-09-03T11:24:43.832Z,340
2018-09-03T11:25:43.756Z,345
2018-09-03T11:26:44.264Z,350
2018-09-03T11:27:43.738Z,345
2018-09-03T11:28:44.207Z,335
2018-09-03T11:29:44.303Z,330
2018-09-03T11:30:44.264Z,330
2018-09-03T11:31:44.262Z,340
2018-09-03T11:32:44.270Z,350
2018-09-03T11:33:43.483Z,360
2018-09-03T11:34:43.769Z,370
2018-09-03T11:35:43.522Z,380
2018-09-03T11:36:44.021Z,385
2018-09-03T11:37:44.026Z,390
2018-09-03T11:38:44.040Z,395
2018-09-03T11:39:44.301Z,385
2018-09-03T11:40:44.062Z,385
2018-09-03T11:41:44.297Z,385
2018-09-03T11:42:43.792Z,385
2018-09-03T11:43:43.777Z,385
2018-09-03T11:44:44.346Z,380
2018-09-03T11:45:44.292Z,365
2018-09-03T11:46:44.338Z,350
2018-09-03T11:47:43.534Z,335
2018-09-03T11:48:43.785Z,325
2018-09-03T11:49:43.818Z,320
2018-09-03T11:50:43.790Z,310
2018-09-03T11:51:43.816Z,305
2018-09-03T11:52:43.805Z,305
2018-09-03T11:53:44.078Z,315
2018-09-03T11:54:44.049Z,320
2018-09-03T11:55:44.338Z,330
2018-09-03T11:56:44.096Z,325
2018-09-03T11:57:44.410Z,320
2018-09-03T11:58:44.345Z,315
2018-09-03T11:59:44.122Z,315
2018-09-03T12:00:44.412Z,310
2018-09-03T12:01:44.112Z,310
2018-09-03T12:02:44.119Z,305
2018-09-03T12:03:44.135Z,305
2018-09-03T12:04:44.151Z,310
2018-09-03T12:05:43.867Z,305
2018-09-03T12:06:44.148Z,300
2018-09-03T12:07:43.866Z,295
2018-09-03T12:08:44.108Z,285
2018-09-03T12:09:44.154Z,275
2018-09-03T12:10:44.396Z,270
2018-09-03T12:11:44.418Z,265
2018-09-03T12:12:44.135Z,260
2018-09-03T12:13:44.389Z,260
2018-09-03T12:14:44.431Z,255
2018-09-03T12:15:43.646Z,250
2018-09-03T12:16:44.176Z,250
2018-09-03T12:17:43.654Z,245
2018-09-03T12:18:43.924Z,245
2018-09-03T12:19:44.187Z,250
2018-09-03T12:20:44.193Z,250
2018-09-03T12:21:44.861Z,260
2018-09-03T12:22:44.178Z,265
2018-09-03T12:23:44.176Z,270
2018-09-03T12:24:43.938Z,280
2018-09-03T12:25:44.225Z,285
2018-09-03T12:26:43.706Z,285
2018-09-03T12:27:44.478Z,295
2018-09-03T12:28:43.716Z,300
2018-09-03T12:29:43.960Z,310
2018-09-03T12:30:44.307Z,320
2018-09-03T12:31:44.181Z,325
2018-09-03T12:32:44.485Z,330
2018-09-03T12:33:43.965Z,330
2018-09-03T12:34:44.245Z,330
2018-09-03T12:35:43.451Z,330
2018-09-03T12:36:44.479Z,330
2018-09-03T12:37:43.721Z,330
2018-09-03T12:38:44.247Z,330
2018-09-03T12:39:44.496Z,330
2018-09-03T12:40:43.969Z,330
2018-09-03T12:41:43.789Z,325
2018-09-03T12:42:43.784Z,325
2018-09-03T12:43:43.750Z,320
2018-09-03T12:44:43.728Z,315
2018-09-03T12:45:44.265Z,310
2018-09-03T12:46:43.753Z,300
2018-09-03T12:47:43.750Z,295
2018-09-03T12:48:44.014Z,295
2018-09-03T12:49:44.526Z,295
2018-09-03T12:50:44.532Z,295
2018-09-03T12:51:43.750Z,300
2018-09-03T12:52:44.028Z,295
2018-09-03T12:53:44.029Z,290
2018-09-03T12:54:44.012Z,285
2018-09-03T12:55:44.021Z,280
2018-09-03T12:56:44.024Z,275
2018-09-03T12:57:44.050Z,275
2018-09-03T12:58:44.168Z,280
2018-09-03T12:59:44.049Z,285
2018-09-03T13:00:48.097Z,290
2018-09-03T13:01:44.577Z,300
2018-09-03T13:02:49.188Z,310
2018-09-03T13:03:44.320Z,315
2018-09-03T13:04:44.421Z,325
2018-09-03T13:05:44.071Z,335
2018-09-03T13:06:44.319Z,330
2018-09-03T13:07:44.559Z,330
2018-09-03T13:08:44.369Z,330
2018-09-03T13:09:43.808Z,320
2018-09-03T13:10:44.330Z,315
2018-09-03T13:11:44.332Z,305
2018-09-03T13:12:44.953Z,295
2018-09-03T13:13:44.076Z,290
2018-09-03T13:14:44.114Z,285
2018-09-03T13:15:44.609Z,285
2018-09-03T13:16:44.072Z,290
2018-09-03T13:17:44.396Z,280
2018-09-03T13:18:44.447Z,280
2018-09-03T13:19:44.117Z,275
2018-09-03T13:20:44.361Z,275
2018-09-03T13:21:45.461Z,275
2018-09-03T13:22:44.100Z,270
2018-09-03T13:23:44.614Z,260
2018-09-03T13:24:44.645Z,260
2018-09-03T13:25:44.114Z,265
2018-09-03T13:26:44.649Z,270
2018-09-03T13:27:44.162Z,280
2018-09-03T13:28:44.638Z,280
2018-09-03T13:29:44.388Z,285
2018-09-03T13:30:44.962Z,285
2018-09-03T13:31:44.409Z,285
2018-09-03T13:32:44.123Z,290
2018-09-03T13:33:44.639Z,290
2018-09-03T13:34:44.386Z,295
2018-09-03T13:35:44.664Z,295
2018-09-03T13:36:44.402Z,300
2018-09-03T13:37:44.684Z,300
2018-09-03T13:38:44.414Z,305
2018-09-03T13:39:43.914Z,295
2018-09-03T13:40:44.173Z,290
2018-09-03T13:41:44.432Z,290
2018-09-03T13:42:44.432Z,280
2018-09-03T13:43:44.453Z,275
2018-09-03T13:44:44.448Z,270
2018-09-03T13:45:44.455Z,280
2018-09-03T13:46:44.199Z,275
2018-09-03T13:47:44.458Z,260
2018-09-03T13:48:44.693Z,250
2018-09-03T13:49:44.441Z,245
2018-09-03T13:50:44.453Z,235
2018-09-03T13:51:45.790Z,235
2018-09-03T13:52:44.491Z,230
2018-09-03T13:53:44.218Z,225
2018-09-03T13:54:44.252Z,220
2018-09-03T13:55:44.239Z,220
2018-09-03T13:56:44.564Z,215
2018-09-03T13:57:44.213Z,210
2018-09-03T13:58:44.221Z,215
2018-09-03T13:59:44.483Z,225
2018-09-03T14:00:44.234Z,220
2018-09-03T14:01:44.486Z,215
2018-09-03T14:02:44.759Z,225
2018-09-03T14:03:44.503Z,220
2018-09-03T14:04:44.535Z,220
2018-09-03T14:05:44.524Z,215
2018-09-03T14:06:44.583Z,220
2018-09-03T14:07:43.988Z,225
2018-09-03T14:08:44.494Z,225
2018-09-03T14:09:44.522Z,225
2018-09-03T14:10:44.507Z,225
2018-09-03T14:11:45.157Z,220
2018-09-03T14:12:44.533Z,220
2018-09-03T14:13:44.783Z,215
2018-09-03T14:14:44.538Z,210